Kimberlin Heights, Tennessee
Current Conditions -  °F | °C
As of 6:53 PM on Wednesday 26 Nov 2014 (Local Time) from KTYS Reporting Station
Overcast Overcast  
Wind Chill:   Ceiling: 18000
Heat Index:   Visibility: 10mi
Dew Point: -2°   Wind: 9mph
Humidity: 53%   Direction: 210°SSW
Pressure: 30.03"   Gusts: NA
Location:  35.9105°N, 83.8544°W
Report Text: KTYS 262353Z 21008KT 10SM SCT120 BKN180 OVC250 07/M02 A3003 RMK AO2 SLP172 T00671022 10111 20067 50006
Loading
Personal Weather Stations






























Interactive Weather Map New forecast layout! Learn more

10-Day Weather Forecast

Advertisements
Track Severe Weather on mobile